• Join FlightAware (Why Join?)
  • Login
  • US Flag 
03:51AM EST


 

Airport Tracker/Info


-or-


 

Live Flight TrackerFlight Track Log ✈ PT-MXB ✈ 19-May-2012 ✈ SBGR / GRU - SAEZ / EZE

Flight Track Log - Related Links

Times and Time Zones

All times are in EDT time to prevent confusion due to time zone crossing. See the PT-MXB flight status page for this flight to view local times or setup timezone preferences in your user account.

Time Position Orientation Groundspeed Altitude Reporting Facility
EDT Latitude Longitude Course Direction KTS MPH feet Rate Location/Type
10:58AM -28.4397 -51.3083 222° Southwest  Level Estimated
10:59AM -28.5115 -51.3821 222° Southwest  Level Estimated
11:00AM -28.5832 -51.4560 222° Southwest  Level Estimated
11:01AM -28.6550 -51.5300 222° Southwest  Level Estimated
11:02AM -28.7267 -51.6041 222° Southwest  Level Estimated
11:03AM -28.7983 -51.6783 222° Southwest  Level Estimated
11:04AM -28.8699 -51.7527 222° Southwest  Level Estimated
11:05AM -28.9415 -51.8271 222° Southwest  Level Estimated
11:06AM -29.0130 -51.9016 222° Southwest  Level Estimated
11:07AM -29.0845 -51.9762 222° Southwest  Level Estimated
11:08AM -29.1560 -52.0509 222° Southwest  Level Estimated
11:09AM -29.2274 -52.1257 222° Southwest  Level Estimated
11:10AM -29.2987 -52.2007 223° Southwest  Level Estimated
11:11AM -29.3701 -52.2757 223° Southwest  Level Estimated
11:12AM -29.4413 -52.3508 223° Southwest  Level Estimated
11:13AM -29.5126 -52.4261 223° Southwest  Level Estimated
11:14AM -29.5838 -52.5014 223° Southwest  Level Estimated
11:15AM -29.6549 -52.5769 223° Southwest  Level Estimated
11:16AM -29.7260 -52.6525 223° Southwest  Level Estimated
11:17AM -29.7971 -52.7281 223° Southwest  Level Estimated
11:18AM -29.8681 -52.8039 223° Southwest  Level Estimated
11:19AM -29.9391 -52.8798 223° Southwest  Level Estimated
11:20AM -30.0100 -52.9558 223° Southwest  Level Estimated
11:21AM -30.0809 -53.0319 223° Southwest  Level Estimated
11:22AM -30.1518 -53.1081 223° Southwest  Level Estimated
11:23AM -30.2226 -53.1844 223° Southwest  Level Estimated
11:24AM -30.2934 -53.2608 223° Southwest  Level Estimated
11:25AM -30.3641 -53.3374 223° Southwest  Level Estimated
11:26AM -30.4347 -53.4140 223° Southwest  Level Estimated
11:27AM -30.5054 -53.4908 223° Southwest  Level Estimated
11:28AM -30.5760 -53.5677 223° Southwest  Level Estimated
11:29AM -30.6465 -53.6447 223° Southwest  Level Estimated
11:30AM -30.7170 -53.7218 223° Southwest  Level Estimated
11:31AM -30.7874 -53.7990 223° Southwest  Level Estimated
11:32AM -30.8578 -53.8763 223° Southwest  Level Estimated
11:33AM -30.9282 -53.9537 223° Southwest  Level Estimated
11:34AM -30.9985 -54.0313 223° Southwest  Level Estimated
11:35AM -31.0688 -54.1090 223° Southwest  Level Estimated
11:36AM -31.1390 -54.1867 224° Southwest  Level Estimated
11:37AM -31.2091 -54.2646 224° Southwest  Level Estimated
11:38AM -31.2793 -54.3426 224° Southwest  Level Estimated
11:39AM -31.3493 -54.4208 224° Southwest  Level Estimated
11:40AM -31.4194 -54.4990 224° Southwest  Level Estimated
11:41AM -31.4893 -54.5774 224° Southwest  Level Estimated
11:42AM -31.5593 -54.6558 224° Southwest  Level Estimated
11:43AM -31.6292 -54.7345 224° Southwest  Level Estimated
11:44AM -31.6990 -54.8132 224° Southwest  Level Estimated
11:45AM -31.7688 -54.8920 224° Southwest  Level Estimated
11:46AM -31.8385 -54.9710 224° Southwest  Level Estimated
11:47AM -31.9082 -55.0500 224° Southwest  Level Estimated
11:48AM -31.9778 -55.1292 224° Southwest  Level Estimated
11:49AM -32.0474 -55.2085 224° Southwest  Level Estimated
11:50AM -32.1170 -55.2879 224° Southwest  Level Estimated
11:51AM -32.1865 -55.3675 224° Southwest  Level Estimated
11:52AM -32.2559 -55.4472 224° Southwest  Level Estimated
11:53AM -32.3253 -55.5270 224° Southwest  Level Estimated
11:54AM -32.3946 -55.6069 224° Southwest  Level Estimated
11:55AM -32.4639 -55.6869 224° Southwest  Level Estimated
11:56AM -32.5332 -55.7671 224° Southwest  Level Estimated
11:57AM -32.6024 -55.8474 224° Southwest  Level Estimated
11:58AM -32.6715 -55.9278 224° Southwest  Level Estimated
11:59AM -32.7406 -56.0083 224° Southwest  Level Estimated
12:00PM -32.8096 -56.0890 225° Southwest  Level Estimated
12:01PM -32.8786 -56.1698 225° Southwest  Level Estimated
12:02PM -32.9475 -56.2507 225° Southwest  Level Estimated
12:03PM -33.0164 -56.3317 225° Southwest  Level Estimated
12:04PM -33.0852 -56.4129 225° Southwest  Level Estimated
12:05PM -33.1540 -56.4942 225° Southwest  Level Estimated
12:06PM -33.2227 -56.5756 225° Southwest  Level Estimated
12:07PM -33.2914 -56.6572 225° Southwest  Level Estimated
12:08PM -33.3600 -56.7388 225° Southwest  Level Estimated
12:09PM -33.4286 -56.8207 225° Southwest  Level Estimated
12:10PM -33.4971 -56.9026 225° Southwest  Level Estimated
12:11PM -33.5655 -56.9847 225° Southwest  Level Estimated
12:12PM -33.6339 -57.0669 225° Southwest  Level Estimated
12:13PM -33.7023 -57.1492 225° Southwest  Level Estimated
12:14PM -33.7706 -57.2317 225° Southwest  Level Estimated
12:15PM -33.8388 -57.3142 225° Southwest  Level Estimated
12:16PM -33.9070 -57.3970 225° Southwest  Level Estimated
12:17PM -33.9751 -57.4798 225° Southwest  Level Estimated
12:18PM -34.0432 -57.5628 225° Southwest  Level Estimated
12:19PM -34.1112 -57.6459 225° Southwest  Level Estimated
12:20PM -34.1792 -57.7292 225° Southwest  Level Estimated
12:21PM -34.2471 -57.8126 225° Southwest  Level Estimated
12:22PM -34.3149 -57.8961 226° Southwest  Level Estimated
12:23PM -34.3827 -57.9798 226° Southwest  Level Estimated
12:24PM -34.4504 -58.0635 226° Southwest  Level Estimated
12:25PM -34.5181 -58.1475 226° Southwest  Level Estimated
12:26PM -34.5857 -58.2315 226° Southwest  Level Estimated
12:27PM -34.6533 -58.3157 226° Southwest  Level Estimated
12:28PM -34.7208 -58.4001 226° Southwest  Level Estimated
12:29PM -34.7882 -58.4846 226° Southwest  Level Estimated
12:30PM -34.8556 -58.5692 46° Northeast  Level Estimated
12:31PM -34.7882 -58.4846 226° Southwest  Level Estimated
12:32PM -34.8556 -58.5692 46° Northeast  Level Estimated
12:33PM -34.7882 -58.4846 226° Southwest  Level Estimated
12:34PM -34.8556 -58.5692 46° Northeast  Level Estimated
12:35PM -34.7882 -58.4846 226° Southwest  Level Estimated
12:36PM -34.8556 -58.5692 46° Northeast  Level Estimated
12:37PM -34.7882 -58.4846 226° Southwest  Level Estimated
12:38PM -34.8556 -58.5692 46° Northeast  Level Estimated
12:39PM -34.7882 -58.4846 226° Southwest  Level Estimated
12:40PM -34.8556 -58.5692 46° Northeast  Level Estimated
12:41PM -34.7882 -58.4846 226° Southwest  Level Estimated
12:42PM -34.8556 -58.5692 46° Northeast  Level Estimated
12:43PM -34.7882 -58.4846 226° Southwest  Level Estimated
12:44PM -34.8556 -58.5692 46° Northeast  Level Estimated
12:45PM -34.7882 -58.4846 46° Northeast  Level Estimated